createdAt,value
2022-09-06T01:48:31.707Z,15.16
2022-09-06T01:51:10.503Z,15.04
2022-09-06T01:53:55.947Z,15.06
2022-09-06T01:56:36.826Z,15.03
2022-09-06T01:59:29.281Z,14.99
2022-09-06T02:02:03.425Z,15.00
2022-09-06T02:04:42.001Z,15.05
2022-09-06T02:07:16.965Z,15.03
2022-09-06T02:09:49.575Z,15.10
2022-09-06T02:12:20.998Z,15.06
2022-09-06T02:14:54.124Z,15.02
2022-09-06T02:17:27.524Z,15.10
2022-09-06T02:20:02.834Z,15.12
2022-09-06T02:22:36.198Z,15.21
2022-09-06T02:25:08.299Z,15.28
2022-09-06T02:27:37.920Z,15.28
2022-09-06T02:30:07.613Z,15.19
2022-09-06T02:32:40.974Z,15.16
2022-09-06T02:35:15.726Z,15.17
2022-09-06T02:37:45.667Z,15.16
2022-09-06T02:40:14.413Z,15.11
2022-09-06T02:42:43.674Z,15.05
2022-09-06T02:45:12.312Z,15.13
2022-09-06T02:47:40.516Z,15.12
2022-09-06T02:50:12.732Z,15.15
2022-09-06T02:52:41.073Z,15.15
2022-09-06T02:55:10.057Z,15.09
2022-09-06T02:57:38.251Z,15.10
2022-09-06T03:00:07.706Z,15.18
2022-09-06T03:02:36.134Z,15.27
2022-09-06T03:05:04.473Z,15.35
2022-09-06T03:07:34.086Z,15.32
2022-09-06T03:10:02.987Z,15.30
2022-09-06T03:12:31.325Z,15.37
2022-09-06T03:14:59.585Z,15.46
2022-09-06T03:17:27.798Z,15.52
2022-09-06T03:19:56.035Z,15.52
2022-09-06T03:22:24.264Z,15.45
2022-09-06T03:24:53.909Z,15.27
2022-09-06T03:27:22.162Z,15.22
2022-09-06T03:29:50.406Z,15.28
2022-09-06T03:32:18.737Z,15.30
2022-09-06T03:34:46.927Z,15.40
2022-09-06T03:37:15.525Z,15.36
2022-09-06T03:39:44.049Z,15.47
2022-09-06T03:42:13.736Z,15.57
2022-09-06T03:44:42.063Z,15.54
2022-09-06T03:47:10.365Z,15.58
2022-09-06T03:49:38.572Z,15.63
2022-09-06T03:52:07.240Z,15.77
2022-09-06T03:54:36.166Z,15.84
2022-09-06T03:57:04.644Z,15.87
2022-09-06T03:59:34.577Z,15.75
2022-09-06T04:02:02.961Z,15.90
2022-09-06T04:04:31.259Z,15.82
2022-09-06T04:06:59.428Z,15.96
2022-09-06T04:09:27.657Z,15.99
2022-09-06T04:11:56.000Z,16.18
2022-09-06T04:14:24.444Z,16.27
2022-09-06T04:16:54.121Z,16.33
2022-09-06T04:19:22.592Z,16.41
2022-09-06T04:21:50.821Z,16.58
2022-09-06T04:24:18.979Z,16.71
2022-09-06T04:26:47.155Z,16.80
2022-09-06T04:29:15.328Z,16.95
2022-09-06T04:31:43.595Z,17.05
2022-09-06T04:34:13.290Z,17.13
2022-09-06T04:36:43.651Z,17.08
2022-09-06T04:39:15.938Z,17.24
2022-09-06T04:41:44.318Z,17.33
2022-09-06T04:44:12.659Z,17.29
2022-09-06T04:46:43.135Z,17.40
2022-09-06T04:49:12.733Z,17.59
2022-09-06T04:51:41.493Z,17.68
2022-09-06T04:54:09.694Z,17.65
2022-09-06T04:56:37.935Z,17.77
2022-09-06T04:59:06.118Z,17.83
2022-09-06T05:01:34.366Z,17.93
2022-09-06T05:04:02.875Z,18.01
2022-09-06T05:06:32.500Z,18.12
2022-09-06T05:09:01.342Z,18.21
2022-09-06T05:11:29.664Z,18.27
2022-09-06T05:13:57.906Z,18.35
2022-09-06T05:16:26.290Z,18.48
2022-09-06T05:18:54.607Z,18.47
2022-09-06T05:21:23.052Z,18.55
2022-09-06T05:23:55.470Z,18.55
2022-09-06T05:26:26.809Z,18.70
2022-09-06T05:28:55.022Z,18.72
2022-09-06T05:31:28.539Z,19.02
2022-09-06T05:33:57.639Z,19.74
2022-09-06T05:36:26.569Z,20.95
2022-09-06T05:38:57.461Z,22.56
2022-09-06T05:41:26.285Z,23.49
2022-09-06T05:43:54.772Z,23.71
2022-09-06T05:46:23.413Z,24.62
2022-09-06T05:48:55.524Z,24.78
2022-09-06T05:51:24.326Z,24.66
2022-09-06T05:53:52.551Z,24.56
2022-09-06T05:56:22.705Z,24.58
2022-09-06T05:58:50.965Z,25.24
2022-09-06T06:01:21.003Z,25.16
2022-09-06T06:03:54.152Z,24.72
2022-09-06T06:06:23.618Z,24.52
2022-09-06T06:08:51.965Z,25.23
2022-09-06T06:11:22.159Z,24.91
2022-09-06T06:13:50.990Z,24.90
2022-09-06T06:16:20.841Z,25.12
2022-09-06T06:18:52.359Z,24.45
2022-09-06T06:21:23.178Z,24.98
2022-09-06T06:23:53.403Z,25.10
2022-09-06T06:26:24.103Z,25.23
2022-09-06T06:28:53.416Z,23.83
2022-09-06T06:31:22.779Z,24.75
2022-09-06T06:33:51.345Z,24.47
2022-09-06T06:36:24.513Z,24.71
2022-09-06T06:38:55.375Z,24.81
2022-09-06T06:41:26.425Z,25.51
2022-09-06T06:43:54.889Z,25.12
2022-09-06T06:46:24.415Z,24.86
2022-09-06T06:48:55.228Z,24.99
2022-09-06T06:51:25.461Z,25.79
2022-09-06T06:53:54.227Z,24.99
2022-09-06T06:56:25.755Z,24.26
2022-09-06T06:58:55.843Z,24.57
2022-09-06T07:01:26.042Z,24.82
2022-09-06T07:03:54.832Z,24.53
2022-09-06T07:09:12.365Z,24.99
2022-09-06T07:11:42.283Z,23.93
2022-09-06T07:14:10.484Z,24.15
2022-09-06T07:16:38.760Z,22.78
2022-09-06T07:19:07.110Z,22.08
2022-09-06T07:24:08.385Z,21.19
2022-09-06T07:26:39.383Z,21.28
2022-09-06T07:29:10.292Z,21.63
2022-09-06T07:34:27.717Z,21.37
2022-09-06T07:36:56.941Z,21.43
2022-09-06T07:39:25.581Z,20.94
2022-09-06T07:41:53.840Z,21.23
2022-09-06T07:44:23.380Z,21.42
2022-09-06T07:46:52.620Z,21.23
2022-09-06T07:49:21.054Z,21.14
2022-09-06T07:51:49.559Z,21.38
2022-09-06T07:54:33.056Z,21.28
2022-09-06T07:57:01.371Z,21.41
2022-09-06T07:59:31.054Z,21.04
2022-09-06T08:01:59.299Z,20.76
2022-09-06T08:04:27.536Z,21.15
2022-09-06T08:09:45.586Z,21.48
2022-09-06T08:12:13.840Z,21.31
2022-09-06T08:14:43.574Z,21.33
2022-09-06T08:17:11.851Z,21.51
2022-09-06T08:19:40.424Z,21.69
2022-09-06T08:22:08.879Z,21.90
2022-09-06T08:24:37.060Z,21.86
2022-09-06T08:27:07.817Z,22.22
2022-09-06T08:29:36.224Z,22.47
2022-09-06T08:32:05.949Z,22.31
2022-09-06T08:34:34.241Z,22.36
2022-09-06T08:37:02.657Z,21.66
2022-09-06T08:39:31.023Z,21.60
2022-09-06T08:42:03.789Z,21.69
2022-09-06T08:47:25.722Z,21.90
2022-09-06T08:49:58.033Z,22.23
2022-09-06T08:52:49.347Z,22.55
2022-09-06T08:55:34.930Z,22.59
2022-09-06T08:58:13.446Z,22.72
2022-09-06T09:00:47.554Z,22.05
2022-09-06T09:03:20.367Z,22.21
2022-09-06T09:05:51.153Z,22.23
2022-09-06T09:08:26.930Z,22.57
2022-09-06T09:10:59.845Z,22.54
2022-09-06T09:13:35.106Z,22.78
2022-09-06T09:16:03.789Z,22.24
2022-09-06T09:18:36.001Z,22.10
2022-09-06T09:21:05.000Z,22.40
2022-09-06T09:23:33.897Z,22.28
2022-09-06T09:26:06.010Z,22.17
2022-09-06T09:28:35.601Z,22.00
2022-09-06T09:31:04.682Z,22.48
2022-09-06T09:33:36.942Z,22.33
2022-09-06T09:36:11.037Z,22.20
2022-09-06T09:38:43.700Z,22.18
2022-09-06T09:41:25.245Z,22.58
2022-09-06T09:44:03.700Z,22.53
2022-09-06T09:46:34.341Z,22.79
2022-09-06T09:49:07.054Z,23.09
2022-09-06T09:51:37.575Z,22.93
2022-09-06T09:54:08.555Z,23.29
2022-09-06T09:56:44.977Z,23.39
2022-09-06T09:59:26.417Z,23.59
2022-09-06T10:01:57.309Z,23.59
2022-09-06T10:04:47.248Z,23.24
2022-09-06T10:07:17.675Z,23.17
2022-09-06T10:09:48.455Z,22.73
2022-09-06T10:12:29.772Z,22.54
2022-09-06T10:14:59.521Z,22.92
2022-09-06T10:17:34.112Z,23.05
2022-09-06T10:20:08.945Z,23.06
2022-09-06T10:22:48.553Z,23.15
2022-09-06T10:25:35.297Z,23.21
2022-09-06T10:28:36.605Z,23.17
2022-09-06T10:31:28.747Z,23.34
2022-09-06T10:34:20.027Z,23.41
2022-09-06T10:37:02.229Z,23.39
2022-09-06T10:39:43.563Z,23.14
2022-09-06T10:42:21.939Z,22.93
2022-09-06T10:45:06.687Z,23.04
2022-09-06T10:47:56.491Z,22.94
2022-09-06T10:50:31.796Z,22.99
2022-09-06T10:53:08.109Z,22.70
2022-09-06T10:55:40.207Z,22.83
2022-09-06T11:00:46.882Z,22.70
2022-09-06T11:06:15.164Z,22.37
2022-09-06T11:08:53.419Z,22.17
2022-09-06T11:11:27.989Z,22.03
2022-09-06T11:13:56.208Z,22.07
2022-09-06T11:16:31.277Z,22.22
2022-09-06T11:19:04.358Z,22.09
2022-09-06T11:22:06.107Z,22.27
2022-09-06T11:24:51.833Z,22.21
2022-09-06T11:27:29.690Z,22.16
2022-09-06T11:30:00.902Z,22.26
2022-09-06T11:32:38.647Z,22.43
2022-09-06T11:35:11.128Z,22.60
2022-09-06T11:37:43.010Z,22.57
2022-09-06T11:40:26.795Z,22.58
2022-09-06T11:43:18.056Z,22.59
2022-09-06T11:45:49.811Z,22.60
2022-09-06T11:48:37.334Z,22.68
2022-09-06T11:51:11.000Z,22.65
2022-09-06T11:54:07.625Z,22.75
2022-09-06T11:56:42.232Z,22.77
2022-09-06T11:59:24.476Z,22.64
2022-09-06T12:02:02.235Z,22.31
2022-09-06T12:05:09.910Z,21.80
2022-09-06T12:07:39.115Z,21.87
2022-09-06T12:10:40.123Z,21.91
2022-09-06T12:13:41.179Z,21.91
2022-09-06T12:16:12.379Z,22.05
2022-09-06T12:19:10.560Z,21.94
2022-09-06T12:21:42.982Z,21.99
2022-09-06T12:24:52.303Z,21.88
2022-09-06T12:27:22.443Z,21.93
2022-09-06T12:29:59.540Z,21.93
2022-09-06T12:32:36.717Z,21.76
2022-09-06T12:38:03.733Z,21.74
2022-09-06T12:40:34.134Z,21.45
2022-09-06T12:43:04.641Z,21.48
2022-09-06T12:45:33.282Z,21.77
2022-09-06T12:48:11.919Z,21.90
2022-09-06T12:50:41.815Z,21.83
2022-09-06T12:53:24.537Z,22.11
2022-09-06T12:56:05.513Z,22.00
2022-09-06T12:58:34.212Z,21.97
2022-09-06T13:01:10.818Z,22.03
2022-09-06T13:03:45.750Z,21.62
2022-09-06T13:06:24.565Z,21.67
2022-09-06T13:08:57.260Z,21.55
2022-09-06T13:11:29.598Z,21.66
2022-09-06T13:13:58.352Z,21.52
2022-09-06T13:16:28.661Z,21.48
2022-09-06T13:19:12.912Z,21.40
2022-09-06T13:21:43.024Z,21.37
2022-09-06T13:24:22.017Z,21.52
2022-09-06T13:26:50.798Z,21.62
2022-09-06T13:29:27.395Z,21.48
2022-09-06T13:31:57.405Z,21.58
2022-09-06T13:34:29.065Z,21.60
2022-09-06T13:37:02.537Z,21.60
2022-09-06T13:39:35.012Z,21.51
2022-09-06T13:42:07.432Z,21.38
2022-09-06T13:44:37.284Z,21.46
2022-09-06T13:47:06.779Z,21.40
2022-09-06T13:49:36.336Z,21.35
2022-09-06T13:52:05.764Z,21.13
2022-09-06T13:54:34.392Z,21.17
2022-09-06T13:57:02.943Z,21.27
2022-09-06T13:59:31.763Z,21.19
2022-09-06T14:02:02.820Z,21.09
2022-09-06T14:04:32.467Z,21.11
2022-09-06T14:07:02.448Z,21.13
2022-09-06T14:09:30.978Z,21.23
2022-09-06T14:11:59.264Z,21.21
2022-09-06T14:14:27.591Z,21.04
2022-09-06T14:16:55.868Z,21.00
2022-09-06T14:19:24.527Z,21.06
2022-09-06T14:21:52.762Z,21.02
2022-09-06T14:24:22.566Z,21.00
2022-09-06T14:26:50.950Z,21.14
2022-09-06T14:29:19.207Z,21.18
2022-09-06T14:31:48.515Z,21.16
2022-09-06T14:34:17.015Z,21.23
2022-09-06T14:36:45.284Z,21.00
2022-09-06T14:39:13.579Z,20.96
2022-09-06T14:41:43.190Z,21.00
2022-09-06T14:44:11.841Z,20.89
2022-09-06T14:46:40.104Z,20.89
2022-09-06T14:49:10.413Z,20.82
2022-09-06T14:51:39.919Z,20.89
2022-09-06T14:54:10.368Z,20.84
2022-09-06T14:56:40.547Z,20.87
2022-09-06T14:59:10.675Z,20.77
2022-09-06T15:01:40.425Z,20.84
2022-09-06T15:04:10.921Z,20.76
2022-09-06T15:06:44.205Z,20.86
2022-09-06T15:09:12.411Z,20.88
2022-09-06T15:11:42.661Z,20.87
2022-09-06T15:14:15.464Z,20.82
2022-09-06T15:16:44.133Z,20.80
2022-09-06T15:19:12.871Z,20.65
2022-09-06T15:21:42.098Z,20.60
2022-09-06T15:24:12.212Z,20.63
2022-09-06T15:26:41.146Z,20.55
2022-09-06T15:29:09.532Z,20.47
2022-09-06T15:31:40.313Z,20.39
2022-09-06T15:34:09.126Z,20.32
2022-09-06T15:36:37.663Z,20.34
2022-09-06T15:39:06.911Z,20.23
2022-09-06T15:41:37.229Z,20.12
2022-09-06T15:44:10.925Z,20.04
2022-09-06T15:46:46.921Z,19.97
2022-09-06T15:49:17.349Z,19.98
2022-09-06T15:51:45.720Z,19.92
2022-09-06T15:54:15.367Z,19.91
2022-09-06T15:56:44.540Z,19.82
2022-09-06T15:59:13.097Z,19.78
2022-09-06T16:01:41.586Z,19.67
2022-09-06T16:04:11.273Z,19.62
2022-09-06T16:06:42.768Z,19.56
2022-09-06T16:09:14.289Z,19.51
2022-09-06T16:11:43.327Z,19.45
2022-09-06T16:14:13.834Z,19.29
2022-09-06T16:16:43.152Z,19.26
2022-09-06T16:19:14.218Z,19.22
2022-09-06T16:21:44.809Z,19.10
2022-09-06T16:24:15.090Z,19.10
2022-09-06T16:26:45.481Z,19.05
2022-09-06T16:29:15.707Z,19.03
2022-09-06T16:31:43.978Z,19.02
2022-09-06T16:34:14.430Z,18.99
2022-09-06T16:36:43.163Z,18.90
2022-09-06T16:39:11.959Z,18.93
2022-09-06T16:41:42.655Z,18.91
2022-09-06T16:44:16.587Z,18.81
2022-09-06T16:46:46.160Z,18.74
2022-09-06T16:49:17.481Z,18.66
2022-09-06T16:51:46.555Z,18.58
2022-09-06T16:54:15.543Z,18.55
2022-09-06T16:56:43.975Z,18.63
2022-09-06T16:59:13.082Z,18.56
2022-09-06T17:01:42.260Z,18.48
2022-09-06T17:04:11.069Z,18.47
2022-09-06T17:06:44.878Z,18.44
2022-09-06T17:09:14.477Z,18.46
2022-09-06T17:11:42.841Z,18.51
2022-09-06T17:14:11.101Z,18.45
2022-09-06T17:16:56.658Z,18.45
2022-09-06T17:19:25.119Z,18.46
2022-09-06T17:21:55.175Z,18.46
2022-09-06T17:24:23.334Z,18.39
2022-09-06T17:26:51.525Z,18.44
2022-09-06T17:29:19.948Z,18.44
2022-09-06T17:31:49.663Z,18.40
2022-09-06T17:34:18.290Z,18.46
2022-09-06T17:36:46.661Z,18.48
2022-09-06T17:39:18.756Z,18.43
2022-09-06T17:41:50.062Z,18.37
2022-09-06T17:44:21.479Z,18.39
2022-09-06T17:47:11.943Z,18.47
2022-09-06T17:49:39.478Z,18.50
2022-09-06T17:52:07.654Z,18.48
2022-09-06T17:54:37.232Z,18.50
2022-09-06T17:57:05.693Z,18.44
2022-09-06T17:59:35.712Z,18.44
2022-09-06T18:02:05.185Z,18.44
2022-09-06T18:04:33.545Z,18.38
2022-09-06T18:07:02.052Z,18.34
2022-09-06T18:09:30.668Z,18.33
2022-09-06T18:12:00.281Z,18.31
2022-09-06T18:14:29.600Z,18.26
2022-09-06T18:16:57.900Z,18.31
2022-09-06T18:19:27.012Z,18.39
2022-09-06T18:21:57.341Z,18.36
2022-09-06T18:24:25.811Z,18.35
2022-09-06T18:26:54.139Z,18.31
2022-09-06T18:29:24.255Z,18.26
2022-09-06T18:31:54.268Z,18.34
2022-09-06T18:34:23.082Z,18.39
2022-09-06T18:36:51.567Z,18.43
2022-09-06T18:39:20.572Z,18.44
2022-09-06T18:42:11.391Z,18.36
2022-09-06T18:44:41.086Z,18.31
2022-09-06T18:47:15.639Z,18.26
2022-09-06T18:49:44.505Z,18.21
2022-09-06T18:52:12.980Z,18.21
2022-09-06T18:54:41.547Z,18.15
2022-09-06T18:57:10.126Z,18.07
2022-09-06T18:59:38.611Z,18.01
2022-09-06T19:02:08.630Z,17.95
2022-09-06T19:04:39.456Z,18.01
2022-09-06T19:07:07.976Z,18.04
2022-09-06T19:09:36.567Z,18.12
2022-09-06T19:12:05.192Z,18.04
2022-09-06T19:14:34.046Z,18.09
2022-09-06T19:17:02.762Z,18.05
2022-09-06T19:19:32.575Z,18.01
2022-09-06T19:22:01.165Z,17.93
2022-09-06T19:24:29.570Z,17.88
2022-09-06T19:26:58.025Z,17.83
2022-09-06T19:29:27.592Z,17.77
2022-09-06T19:31:57.251Z,17.67
2022-09-06T19:34:25.844Z,17.62
2022-09-06T19:36:57.430Z,17.60
2022-09-06T19:39:32.304Z,17.58
2022-09-06T19:42:03.215Z,17.51
2022-09-06T19:44:31.464Z,17.41
2022-09-06T19:47:00.286Z,17.32
2022-09-06T19:49:29.631Z,17.26
2022-09-06T19:51:59.529Z,17.20
2022-09-06T19:54:27.969Z,17.17
2022-09-06T19:56:56.221Z,17.15
2022-09-06T19:59:24.485Z,17.04
2022-09-06T20:01:52.683Z,16.93
2022-09-06T20:04:21.269Z,16.87
2022-09-06T20:06:49.641Z,16.82
2022-09-06T20:09:19.246Z,16.78
2022-09-06T20:11:47.491Z,16.75
2022-09-06T20:14:15.842Z,16.63
2022-09-06T20:16:44.170Z,16.67
2022-09-06T20:19:15.062Z,16.73
2022-09-06T20:21:44.460Z,16.77
2022-09-06T20:24:12.746Z,16.63
2022-09-06T20:26:42.423Z,16.57
2022-09-06T20:29:11.251Z,16.51
2022-09-06T20:31:39.795Z,16.53
2022-09-06T20:34:08.331Z,16.52
2022-09-06T20:36:38.263Z,16.54
2022-09-06T20:39:06.497Z,16.54
2022-09-06T20:41:35.025Z,16.52
2022-09-06T20:44:05.164Z,16.45
2022-09-06T20:46:35.322Z,16.54
2022-09-06T20:49:04.940Z,16.51
2022-09-06T20:51:34.775Z,16.51
2022-09-06T20:54:04.830Z,16.54
2022-09-06T20:56:35.297Z,16.63
2022-09-06T20:59:07.312Z,16.77
2022-09-06T21:01:37.465Z,16.92
2022-09-06T21:04:07.463Z,16.94
2022-09-06T21:06:37.674Z,16.91
2022-09-06T21:09:07.355Z,16.81
2022-09-06T21:11:36.014Z,16.76
2022-09-06T21:14:06.252Z,16.66
2022-09-06T21:16:34.797Z,16.62
2022-09-06T21:19:05.535Z,16.61
2022-09-06T21:21:35.405Z,16.70
2022-09-06T21:24:05.171Z,16.65
2022-09-06T21:26:34.200Z,16.65
2022-09-06T21:29:02.690Z,16.62
2022-09-06T21:31:34.706Z,16.61
2022-09-06T21:34:05.157Z,16.62
2022-09-06T21:36:35.528Z,16.58
2022-09-06T21:39:05.924Z,16.54
2022-09-06T21:41:35.658Z,16.47
2022-09-06T21:44:05.339Z,16.45
2022-09-06T21:46:37.333Z,16.39
2022-09-06T21:49:07.902Z,16.46
2022-09-06T21:51:36.824Z,16.52
2022-09-06T21:54:06.025Z,16.43
2022-09-06T21:56:35.999Z,16.46
2022-09-06T21:59:05.477Z,16.47
2022-09-06T22:01:36.717Z,16.37
2022-09-06T22:04:06.143Z,16.30
2022-09-06T22:06:36.195Z,16.24
2022-09-06T22:09:10.758Z,16.27
2022-09-06T22:11:39.926Z,16.16
2022-09-06T22:14:10.772Z,16.07
2022-09-06T22:16:41.949Z,16.16
2022-09-06T22:19:11.099Z,16.20
2022-09-06T22:21:39.886Z,16.24
2022-09-06T22:24:10.842Z,16.26
2022-09-06T22:26:40.228Z,16.26
2022-09-06T22:29:10.560Z,16.24
2022-09-06T22:31:40.655Z,16.24
2022-09-06T22:34:09.346Z,16.16
2022-09-06T22:36:37.526Z,16.26
2022-09-06T22:39:06.223Z,16.26
2022-09-06T22:41:35.184Z,16.23
2022-09-06T22:44:05.329Z,16.22
2022-09-06T22:46:34.192Z,16.20
2022-09-06T22:49:05.415Z,16.10
2022-09-06T22:51:34.171Z,15.99
2022-09-06T22:54:02.480Z,15.94
2022-09-06T22:56:30.637Z,15.99
2022-09-06T22:59:00.886Z,16.07
2022-09-06T23:01:29.504Z,16.09
2022-09-06T23:03:57.791Z,16.11
2022-09-06T23:06:27.499Z,16.15
2022-09-06T23:08:55.704Z,16.15
2022-09-06T23:11:23.935Z,16.07
2022-09-06T23:13:56.800Z,15.93
2022-09-06T23:16:25.701Z,15.85
2022-09-06T23:18:54.693Z,15.87
2022-09-06T23:21:24.857Z,15.93
2022-09-06T23:23:56.797Z,16.06
2022-09-06T23:26:28.835Z,16.02
2022-09-06T23:28:57.535Z,15.86
2022-09-06T23:31:27.408Z,15.84
2022-09-06T23:33:57.433Z,15.78
2022-09-06T23:36:25.758Z,15.91
2022-09-06T23:38:56.138Z,15.93
2022-09-06T23:41:24.880Z,15.87
2022-09-06T23:43:53.279Z,15.90
2022-09-06T23:46:21.681Z,15.84
2022-09-06T23:48:49.951Z,15.82
2022-09-06T23:51:18.294Z,15.88
2022-09-06T23:53:46.681Z,15.87
2022-09-06T23:56:16.338Z,15.92
2022-09-06T23:58:44.554Z,15.95
